createdAt,value
2019-02-25T04:48:01.540Z,30.53
2019-02-25T04:50:32.884Z,35.17
2019-02-25T04:53:03.341Z,46.40
2019-02-25T04:55:34.056Z,44.87
2019-02-25T04:58:04.589Z,63.93
2019-02-25T05:00:35.100Z,84.07
2019-02-25T05:03:05.646Z,57.43
2019-02-25T05:05:36.179Z,56.13
2019-02-25T05:08:06.713Z,49.00
2019-02-25T05:10:37.112Z,46.60
2019-02-25T05:13:08.788Z,43.03
2019-02-25T05:15:39.428Z,37.53
2019-02-25T05:18:09.824Z,34.73
2019-02-25T05:20:40.285Z,32.03
2019-02-25T05:23:10.703Z,26.57
2019-02-25T05:25:41.138Z,24.20
2019-02-25T05:28:11.533Z,27.10
2019-02-25T05:30:42.061Z,28.90
2019-02-25T05:33:12.543Z,30.13
2019-02-25T05:35:42.953Z,38.97
2019-02-25T05:38:13.391Z,45.33
2019-02-25T05:40:43.808Z,53.20
2019-02-25T05:43:14.243Z,43.57
2019-02-25T05:45:44.646Z,50.33
2019-02-25T05:48:15.202Z,34.10
2019-02-25T05:50:45.735Z,24.20
2019-02-25T05:53:16.153Z,20.00
2019-02-25T05:55:46.589Z,21.03
2019-02-25T05:58:17.025Z,25.97
2019-02-25T06:00:47.414Z,25.52
2019-02-25T06:03:17.870Z,26.23
2019-02-25T06:05:48.307Z,26.17
2019-02-25T06:08:18.834Z,21.77
2019-02-25T06:10:49.773Z,25.37
2019-02-25T06:13:20.242Z,27.20
2019-02-25T06:15:51.389Z,27.03
2019-02-25T06:18:22.009Z,30.90
2019-02-25T06:20:52.507Z,65.17
2019-02-25T06:23:22.938Z,75.17
2019-02-25T06:25:53.470Z,53.03
2019-02-25T06:28:24.003Z,53.80
2019-02-25T06:30:54.479Z,49.55
2019-02-25T06:33:24.880Z,80.70
2019-02-25T06:35:55.387Z,182.37
2019-02-25T06:38:26.014Z,120.40
2019-02-25T06:40:57.486Z,208.82
2019-02-25T06:43:27.985Z,184.95
2019-02-25T06:45:58.401Z,113.50
2019-02-25T06:48:28.824Z,121.17
2019-02-25T06:51:00.792Z,84.97
2019-02-25T06:53:31.321Z,49.30
2019-02-25T06:56:01.797Z,38.40
2019-02-25T06:58:32.291Z,54.90
2019-02-25T07:01:02.814Z,47.33
2019-02-25T07:03:33.221Z,42.98
2019-02-25T07:06:14.240Z,36.38
2019-02-25T07:08:49.349Z,35.98
2019-02-25T07:11:33.089Z,36.77
2019-02-25T07:14:08.096Z,39.05
2019-02-25T07:16:46.033Z,22.30
2019-02-25T07:19:33.152Z,21.17
2019-02-25T07:22:08.197Z,25.65
2019-02-25T07:24:53.092Z,31.97
2019-02-25T07:27:34.260Z,23.38
2019-02-25T07:30:09.391Z,26.65
2019-02-25T07:32:59.668Z,34.18
2019-02-25T07:35:43.545Z,21.75
2019-02-25T07:38:39.411Z,159.30
2019-02-25T07:41:19.552Z,27.73
2019-02-25T07:43:57.358Z,37.28
2019-02-25T07:46:38.267Z,22.90
2019-02-25T07:49:14.329Z,22.82
2019-02-25T07:51:52.349Z,32.80
2019-02-25T07:54:24.519Z,28.45
2019-02-25T07:57:02.412Z,47.85
2019-02-25T07:59:34.474Z,34.85
2019-02-25T08:02:15.758Z,48.80
2019-02-25T08:04:47.806Z,29.90
2019-02-25T08:07:22.654Z,39.88
2019-02-25T08:09:57.508Z,35.52
2019-02-25T08:12:29.652Z,27.50
2019-02-25T08:15:04.487Z,33.85
2019-02-25T08:17:36.647Z,20.75
2019-02-25T08:20:27.047Z,24.20
2019-02-25T08:23:01.979Z,21.90
2019-02-25T08:25:52.019Z,22.42
2019-02-25T08:28:27.210Z,22.37
2019-02-25T08:30:59.275Z,30.40
2019-02-25T08:33:31.441Z,24.63
2019-02-25T08:36:24.815Z,24.05
2019-02-25T08:39:12.241Z,26.35
2019-02-25T08:41:47.379Z,28.27
2019-02-25T08:44:28.194Z,26.75
2019-02-25T08:47:15.511Z,31.95
2019-02-25T08:49:47.639Z,25.00
2019-02-25T08:52:19.399Z,31.90
2019-02-25T08:54:49.794Z,23.77
2019-02-25T08:57:20.218Z,27.93
2019-02-25T08:59:50.780Z,28.45
2019-02-25T09:02:21.212Z,26.87
2019-02-25T09:04:51.647Z,24.85
2019-02-25T09:07:22.089Z,26.33
2019-02-25T09:09:54.035Z,24.45
2019-02-25T09:12:24.428Z,22.75
2019-02-25T09:14:54.997Z,24.55
2019-02-25T09:17:25.414Z,24.00
2019-02-25T09:19:56.059Z,27.10
2019-02-25T09:22:26.464Z,24.07
2019-02-25T09:24:56.908Z,21.82
2019-02-25T09:27:27.302Z,23.57
2019-02-25T09:29:57.873Z,22.87
2019-02-25T09:32:29.972Z,24.87
2019-02-25T09:35:00.467Z,24.02
2019-02-25T09:37:30.999Z,24.52
2019-02-25T09:40:01.528Z,23.27
2019-02-25T09:42:32.465Z,24.75
2019-02-25T09:45:02.857Z,27.87
2019-02-25T09:47:33.429Z,28.23
2019-02-25T09:50:04.374Z,66.92
2019-02-25T09:52:34.827Z,26.07
2019-02-25T09:55:07.663Z,24.77
2019-02-25T09:57:38.204Z,22.50
2019-02-25T10:00:12.745Z,22.58
2019-02-25T10:02:43.172Z,25.20
2019-02-25T10:05:13.745Z,25.57
2019-02-25T10:07:44.433Z,23.57
2019-02-25T10:10:17.445Z,23.42
2019-02-25T10:12:48.926Z,24.10
2019-02-25T10:15:27.082Z,24.95
2019-02-25T10:17:57.612Z,24.40
2019-02-25T10:20:28.143Z,23.65
2019-02-25T10:22:58.675Z,24.43
2019-02-25T10:25:29.149Z,26.52
2019-02-25T10:27:59.805Z,22.58
2019-02-25T10:30:30.235Z,22.62
2019-02-25T10:33:00.960Z,21.25
2019-02-25T10:35:31.395Z,23.57
2019-02-25T10:38:03.238Z,21.52
2019-02-25T10:40:33.755Z,21.23
2019-02-25T10:43:04.280Z,21.48
2019-02-25T10:45:36.767Z,19.80
2019-02-25T10:48:06.995Z,21.60
2019-02-25T10:50:38.597Z,20.57
2019-02-25T10:53:10.957Z,19.57
2019-02-25T10:56:03.869Z,18.92
2019-02-25T10:58:36.014Z,16.97
2019-02-25T11:01:08.473Z,17.77
2019-02-25T11:03:38.743Z,16.82
2019-02-25T11:06:09.160Z,18.55
2019-02-25T11:08:43.672Z,17.02
2019-02-25T11:11:20.442Z,17.92
2019-02-25T11:13:50.891Z,16.48
2019-02-25T11:16:21.534Z,16.23
2019-02-25T11:18:54.449Z,19.73
2019-02-25T11:21:24.668Z,15.68
2019-02-25T11:23:55.066Z,15.38
2019-02-25T11:26:26.683Z,21.12
2019-02-25T11:28:57.873Z,17.60
2019-02-25T11:31:29.137Z,17.25
2019-02-25T11:34:00.700Z,15.83
2019-02-25T11:36:31.851Z,15.23
2019-02-25T11:39:02.904Z,17.80
2019-02-25T11:41:37.158Z,15.10
2019-02-25T11:44:08.403Z,15.55
2019-02-25T11:46:38.885Z,16.48
2019-02-25T11:49:09.317Z,19.12
2019-02-25T11:51:39.850Z,14.70
2019-02-25T11:54:10.378Z,14.40
2019-02-25T11:56:40.913Z,13.58
2019-02-25T11:59:11.342Z,13.58
2019-02-25T12:01:41.914Z,11.53
2019-02-25T12:04:12.404Z,10.80
2019-02-25T12:06:42.934Z,9.40
2019-02-25T12:09:13.465Z,11.00
2019-02-25T12:11:43.869Z,9.55
2019-02-25T12:14:14.524Z,9.85
2019-02-25T12:16:44.949Z,10.80
2019-02-25T12:19:17.868Z,10.48
2019-02-25T12:21:47.653Z,11.70
2019-02-25T12:24:18.075Z,11.80
2019-02-25T12:26:48.504Z,13.68
2019-02-25T12:29:18.938Z,12.40
2019-02-25T12:31:49.381Z,12.05
2019-02-25T12:34:19.889Z,11.65
2019-02-25T12:36:50.320Z,12.23
2019-02-25T12:39:20.754Z,16.40
2019-02-25T12:41:51.283Z,11.33
2019-02-25T12:44:21.813Z,11.50
2019-02-25T12:46:52.302Z,10.43
2019-02-25T12:49:22.874Z,10.53
2019-02-25T12:51:53.405Z,12.70
2019-02-25T12:54:23.805Z,10.65
2019-02-25T12:56:55.392Z,8.45
2019-02-25T12:59:25.807Z,8.13
2019-02-25T13:01:56.760Z,9.65
2019-02-25T13:04:27.285Z,9.05
2019-02-25T13:06:57.817Z,9.53
2019-02-25T13:09:28.345Z,8.38
2019-02-25T13:11:58.816Z,9.13
2019-02-25T13:14:29.299Z,8.55
2019-02-25T13:16:59.737Z,8.23
2019-02-25T13:19:30.269Z,10.00
2019-02-25T13:22:00.800Z,6.80
2019-02-25T13:24:37.733Z,7.70
2019-02-25T13:27:11.810Z,10.00
2019-02-25T13:29:41.660Z,7.53
2019-02-25T13:32:12.139Z,7.53
2019-02-25T13:34:42.621Z,6.80
2019-02-25T13:37:13.089Z,7.60
2019-02-25T13:39:43.711Z,7.15
2019-02-25T13:42:14.215Z,7.17
2019-02-25T13:44:44.785Z,9.45
2019-02-25T13:47:15.276Z,11.05
2019-02-25T13:49:45.794Z,19.82
2019-02-25T13:52:16.388Z,8.70
2019-02-25T13:54:46.869Z,11.15
2019-02-25T13:57:17.451Z,15.32
2019-02-25T13:59:47.995Z,12.68
2019-02-25T14:02:18.511Z,9.20
2019-02-25T14:04:49.299Z,11.43
2019-02-25T14:07:20.080Z,9.25
2019-02-25T14:09:50.607Z,8.40
2019-02-25T14:12:21.139Z,16.32
2019-02-25T14:14:51.549Z,13.95
2019-02-25T14:17:22.005Z,10.78
2019-02-25T14:19:52.732Z,10.10
2019-02-25T14:22:23.260Z,11.45
2019-02-25T14:24:53.790Z,8.58
2019-02-25T14:27:24.225Z,10.85
2019-02-25T14:29:54.756Z,9.83
2019-02-25T14:32:25.185Z,7.85
2019-02-25T14:34:55.914Z,6.42
2019-02-25T14:37:26.347Z,4.42
2019-02-25T14:40:00.745Z,4.60
2019-02-25T14:42:31.056Z,3.90
2019-02-25T14:45:04.561Z,3.55
2019-02-25T14:47:37.085Z,4.62
2019-02-25T14:50:09.963Z,3.80
2019-02-25T14:52:40.387Z,3.42
2019-02-25T14:55:11.839Z,3.70
2019-02-25T14:57:43.819Z,4.85
2019-02-25T15:00:18.996Z,4.45
2019-02-25T15:02:50.375Z,4.72
2019-02-25T15:05:23.872Z,4.62
2019-02-25T15:07:54.294Z,4.80
2019-02-25T15:10:28.992Z,4.83
2019-02-25T15:12:59.117Z,6.60
2019-02-25T15:15:29.319Z,8.28
2019-02-25T15:17:59.741Z,6.67
2019-02-25T15:20:30.215Z,4.58
2019-02-25T15:23:00.747Z,4.97
2019-02-25T15:25:33.342Z,6.45
2019-02-25T15:28:07.088Z,5.67
2019-02-25T15:30:36.885Z,6.15
2019-02-25T15:33:07.563Z,7.72
2019-02-25T15:35:39.381Z,8.60
2019-02-25T15:38:10.272Z,10.18
2019-02-25T15:40:40.883Z,10.35
2019-02-25T15:43:15.116Z,9.38
2019-02-25T15:45:45.019Z,10.85
2019-02-25T15:48:17.964Z,8.03
2019-02-25T15:50:50.676Z,7.97
2019-02-25T15:53:21.659Z,7.97
2019-02-25T15:55:52.053Z,9.38
2019-02-25T15:58:23.058Z,8.38
2019-02-25T16:00:53.587Z,6.75
2019-02-25T16:03:24.118Z,10.25
2019-02-25T16:05:57.954Z,25.17
2019-02-25T16:08:28.658Z,70.03
2019-02-25T16:11:00.170Z,22.77
2019-02-25T16:13:31.772Z,12.20
2019-02-25T16:16:02.478Z,28.20
2019-02-25T16:18:33.045Z,11.75
2019-02-25T16:21:03.671Z,18.25
2019-02-25T16:23:36.520Z,14.38
2019-02-25T16:26:06.377Z,15.75
2019-02-25T16:28:37.918Z,24.07
2019-02-25T16:31:10.530Z,17.07
2019-02-25T16:33:41.284Z,23.92
2019-02-25T16:36:11.778Z,17.95
2019-02-25T16:38:42.181Z,21.68
2019-02-25T16:41:12.733Z,31.65
2019-02-25T16:43:43.169Z,126.65
2019-02-25T16:46:16.215Z,114.00
2019-02-25T16:48:48.269Z,93.27
2019-02-25T16:51:18.651Z,90.92
2019-02-25T16:53:51.887Z,75.12
2019-02-25T16:56:21.463Z,158.15
2019-02-25T16:58:52.755Z,62.55
2019-02-25T17:01:25.993Z,40.80
2019-02-25T17:03:56.318Z,67.22
2019-02-25T17:06:28.123Z,56.37
2019-02-25T17:08:59.019Z,40.00
2019-02-25T17:11:29.448Z,60.92
2019-02-25T17:14:01.526Z,84.07
2019-02-25T17:16:32.241Z,51.60
2019-02-25T17:19:02.796Z,110.37
2019-02-25T17:21:33.275Z,53.15
2019-02-25T17:24:05.686Z,66.97
2019-02-25T17:26:36.009Z,69.10
2019-02-25T17:29:06.540Z,40.98
2019-02-25T17:31:38.689Z,40.15
2019-02-25T17:34:10.031Z,31.20
2019-02-25T17:36:43.076Z,26.00
2019-02-25T17:39:15.490Z,25.43
2019-02-25T17:41:47.070Z,40.75
2019-02-25T17:44:17.949Z,61.90
2019-02-25T17:46:49.716Z,35.95
2019-02-25T17:49:20.306Z,21.25
2019-02-25T17:51:51.265Z,17.65
2019-02-25T17:54:24.012Z,37.85
2019-02-25T17:56:54.555Z,54.95
2019-02-25T17:59:25.711Z,32.98
2019-02-25T18:01:57.220Z,26.70
2019-02-25T18:04:28.303Z,38.00
2019-02-25T18:06:59.749Z,37.50
2019-02-25T18:09:30.147Z,29.80
2019-02-25T18:12:02.183Z,29.40
2019-02-25T18:14:32.987Z,34.40
2019-02-25T18:17:05.947Z,61.00
2019-02-25T18:19:35.684Z,36.40
2019-02-25T18:22:06.160Z,35.40
2019-02-25T18:24:36.748Z,58.02
2019-02-25T18:27:09.120Z,27.35
2019-02-25T18:29:41.374Z,89.30
2019-02-25T18:32:12.312Z,76.15
2019-02-25T18:34:43.069Z,88.90
2019-02-25T18:37:15.461Z,144.40
2019-02-25T18:39:47.420Z,97.82
2019-02-25T18:42:18.570Z,86.00
2019-02-25T18:44:51.348Z,85.97
2019-02-25T18:47:23.441Z,66.65
2019-02-25T18:49:56.127Z,60.90
2019-02-25T18:52:27.483Z,53.98
2019-02-25T18:54:59.803Z,42.58
2019-02-25T18:57:30.955Z,50.00
2019-02-25T19:00:03.572Z,26.93
2019-02-25T19:02:35.966Z,31.62
2019-02-25T19:05:11.344Z,47.25
2019-02-25T19:07:40.158Z,51.40
2019-02-25T19:10:12.498Z,40.40
2019-02-25T19:12:43.870Z,35.80
2019-02-25T19:15:15.102Z,21.20
2019-02-25T19:17:46.327Z,28.05
2019-02-25T19:20:17.699Z,32.95
2019-02-25T19:22:48.257Z,37.58
2019-02-25T19:25:20.838Z,39.63
